Time;durP1;ratioP1;P1;durP2;ratioP2;P2;SDS_P1;SDS_P2;PMS_P1;PMS_P2;Temp;Humidity;BMP_temperature;BMP_pressure;BME280_temperature;BME280_humidity;BME280_pressure;Samples;Min_cycle;Max_cycle;Signal;HPM_P1;HPM_P2
2023/01/20 00:00:02;;;;;;;24.98;8.48;;;;;;;;;;6215525;23;20000;-87
2023/01/20 00:02:28;;;;;;;14.68;7.38;;;;;;;;;;6215631;23;20000;-85
2023/01/20 00:04:53;;;;;;;16.77;8.18;;;;;;;;;;6217479;23;20027;-86
2023/01/20 00:07:19;;;;;;;14.85;7.07;;;;;;;;;;6194242;23;20122;-85
2023/01/20 00:09:44;;;;;;;16.30;9.05;;;;;;;;;;6194979;23;20003;-88
2023/01/20 00:12:09;;;;;;;16.02;9.05;;;;;;;;;;6224683;23;20004;-86
2023/01/20 00:14:35;;;;;;;18.77;9.13;;;;;;;;;;6231291;23;19996;-90
2023/01/20 00:17:00;;;;;;;21.42;8.18;;;;;;;;;;6225794;23;20005;-89
2023/01/20 00:19:26;;;;;;;16.45;8.07;;;;;;;;;;6212952;23;20011;-88
2023/01/20 00:21:52;;;;;;;22.33;7.90;;;;;;;;;;6165875;23;20012;-84
2023/01/20 00:24:18;;;;;;;21.17;10.07;;;;;;;;;;6215288;23;20023;-90
2023/01/20 00:26:43;;;;;;;23.58;11.05;;;;;;;;;;6204169;23;20000;-89
2023/01/20 00:29:09;;;;;;;18.65;10.48;;;;;;;;;;6220019;23;20015;-94
2023/01/20 00:31:35;;;;;;;25.48;11.18;;;;;;;;;;6201483;23;19997;-91
2023/01/20 00:34:00;;;;;;;28.00;11.95;;;;;;;;;;6232940;23;20005;-88
2023/01/20 00:36:27;;;;;;;32.38;13.38;;;;;;;;;;6165795;23;20436;-91
2023/01/20 00:38:52;;;;;;;28.23;14.25;;;;;;;;;;6189569;23;20012;-90
2023/01/20 00:41:18;;;;;;;27.25;13.32;;;;;;;;;;6164846;23;20405;-88
2023/01/20 00:43:43;;;;;;;30.25;14.02;;;;;;;;;;6189989;23;20361;-89
2023/01/20 00:46:09;;;;;;;30.25;14.82;;;;;;;;;;6189906;23;20005;-90
2023/01/20 00:48:35;;;;;;;24.45;11.27;;;;;;;;;;6187728;23;20378;-89
2023/01/20 00:51:00;;;;;;;25.05;11.60;;;;;;;;;;6189259;23;20008;-89
2023/01/20 00:53:26;;;;;;;23.17;12.63;;;;;;;;;;6194921;23;20025;-90
2023/01/20 00:55:51;;;;;;;23.77;10.52;;;;;;;;;;6189271;23;20000;-89
2023/01/20 00:58:17;;;;;;;20.63;9.77;;;;;;;;;;6215878;23;20098;-87
2023/01/20 01:00:42;;;;;;;17.65;7.70;;;;;;;;;;6189294;23;20016;-89
2023/01/20 01:03:09;;;;;;;17.88;9.48;;;;;;;;;;6139940;23;20119;-89
2023/01/20 01:05:34;;;;;;;15.18;7.63;;;;;;;;;;6164792;23;20091;-89
2023/01/20 01:08:00;;;;;;;13.10;6.05;;;;;;;;;;6164037;23;20059;-90
2023/01/20 01:10:25;;;;;;;12.60;5.43;;;;;;;;;;6215893;23;20543;-89
2023/01/20 01:12:51;;;;;;;11.30;4.78;;;;;;;;;;6204513;23;20412;-89
2023/01/20 01:15:16;;;;;;;13.10;5.28;;;;;;;;;;6215709;23;20067;-89
2023/01/20 01:17:45;;;;;;;13.65;5.15;;;;;;;;;;6215571;23;20000;-87
2023/01/20 01:20:13;;;;;;;13.45;5.10;;;;;;;;;;6190225;23;20466;-89
2023/01/20 01:22:39;;;;;;;13.63;5.28;;;;;;;;;;6140359;23;20004;-89
2023/01/20 01:25:05;;;;;;;11.60;6.38;;;;;;;;;;6188990;23;20329;-89
2023/01/20 01:27:30;;;;;;;13.20;4.60;;;;;;;;;;6189502;23;20431;-89
2023/01/20 01:29:56;;;;;;;16.85;5.60;;;;;;;;;;6164949;23;20080;-89
2023/01/20 01:32:22;;;;;;;11.63;5.35;;;;;;;;;;6207011;23;20001;-88
2023/01/20 01:34:47;;;;;;;12.05;4.68;;;;;;;;;;6189449;23;20009;-87
2023/01/20 01:37:13;;;;;;;8.55;4.32;;;;;;;;;;6215312;23;20027;-90
2023/01/20 01:39:38;;;;;;;17.20;4.70;;;;;;;;;;6216619;23;20005;-87
2023/01/20 01:42:15;;;;;;;13.73;4.30;;;;;;;;;;6215999;23;20011;-87
2023/01/20 01:45:09;;;;;;;10.82;4.28;;;;;;;;;;6191079;23;20004;-86
2023/01/20 01:48:07;;;;;;;9.27;4.50;;;;;;;;;;6216941;23;20008;-88
2023/01/20 01:50:42;;;;;;;6.35;3.53;;;;;;;;;;6194470;23;20004;-86
2023/01/20 01:53:07;;;;;;;7.90;3.60;;;;;;;;;;6197792;23;20062;-87
2023/01/20 01:55:35;;;;;;;7.95;4.15;;;;;;;;;;6139030;23;20008;-87
2023/01/20 01:58:00;;;;;;;9.80;4.93;;;;;;;;;;6188328;23;20087;-88
2023/01/20 02:00:26;;;;;;;9.73;4.53;;;;;;;;;;6187024;23;20016;-87
2023/01/20 02:02:51;;;;;;;10.75;4.05;;;;;;;;;;6163245;23;20011;-86
2023/01/20 02:05:17;;;;;;;4.53;3.13;;;;;;;;;;6188870;23;20134;-83
2023/01/20 02:07:44;;;;;;;14.32;4.03;;;;;;;;;;6139326;23;20367;-87
2023/01/20 02:10:10;;;;;;;8.65;3.20;;;;;;;;;;6145342;23;20005;-85
2023/01/20 02:12:36;;;;;;;8.65;2.30;;;;;;;;;;6174178;23;20000;-87
2023/01/20 02:15:01;;;;;;;8.48;2.85;;;;;;;;;;6188255;23;20004;-87
2023/01/20 02:17:32;;;;;;;4.50;2.47;;;;;;;;;;6188051;23;20094;-87
2023/01/20 02:20:07;;;;;;;4.32;2.60;;;;;;;;;;6214337;23;20076;-88
2023/01/20 02:22:53;;;;;;;5.43;2.30;;;;;;;;;;6214919;23;20043;-87
2023/01/20 02:25:48;;;;;;;3.83;2.67;;;;;;;;;;6188073;23;20107;-86
2023/01/20 02:28:24;;;;;;;4.63;2.65;;;;;;;;;;6207487;23;20290;-87
2023/01/20 02:31:27;;;;;;;6.53;3.50;;;;;;;;;;6179269;23;19997;-88
2023/01/20 02:34:00;;;;;;;10.38;4.75;;;;;;;;;;6214919;23;20004;-86
2023/01/20 02:36:51;;;;;;;8.88;4.28;;;;;;;;;;6188673;23;20004;-88
2023/01/20 02:39:27;;;;;;;10.13;4.50;;;;;;;;;;6147227;23;20052;-86
2023/01/20 02:42:02;;;;;;;11.75;4.65;;;;;;;;;;6163515;23;20031;-85
2023/01/20 02:45:02;;;;;;;9.02;4.43;;;;;;;;;;6163898;23;20012;-87
2023/01/20 02:47:33;;;;;;;15.73;4.45;;;;;;;;;;6183973;23;20086;-88
2023/01/20 02:50:01;;;;;;;;;;;;;;;;;;6200391;23;20022;-87
2023/01/20 02:52:40;;;;;;;9.43;4.97;;;;;;;;;;6220316;23;19904;-86
2023/01/20 02:55:08;;;;;;;10.98;4.25;;;;;;;;;;6188644;23;20043;-89
2023/01/20 02:57:49;;;;;;;13.55;5.00;;;;;;;;;;6163932;23;20336;-88
2023/01/20 03:00:39;;;;;;;9.88;5.00;;;;;;;;;;6164921;23;20009;-89
2023/01/20 03:03:07;;;;;;;8.75;4.47;;;;;;;;;;6214708;23;20324;-89
2023/01/20 03:05:34;;;;;;;11.70;4.85;;;;;;;;;;6163548;23;20005;-88
2023/01/20 03:08:01;;;;;;;10.07;4.75;;;;;;;;;;6163105;23;20351;-89
2023/01/20 03:10:28;;;;;;;10.00;4.65;;;;;;;;;;6183471;23;20553;-82
2023/01/20 03:12:58;;;;;;;10.15;4.43;;;;;;;;;;6193001;23;20019;-85
2023/01/20 03:15:27;;;;;;;10.73;4.90;;;;;;;;;;6152922;23;20005;-89
2023/01/20 03:17:52;;;;;;;10.75;5.65;;;;;;;;;;6139050;23;20000;-87
2023/01/20 03:20:18;;;;;;;12.43;5.88;;;;;;;;;;6187547;23;20011;-87
2023/01/20 03:22:43;;;;;;;9.55;6.10;;;;;;;;;;6187624;23;20366;-88
2023/01/20 03:25:09;;;;;;;21.10;9.52;;;;;;;;;;6187550;23;20004;-89
2023/01/20 03:27:35;;;;;;;28.60;15.32;;;;;;;;;;6163632;23;20005;-89
2023/01/20 03:30:00;;;;;;;19.60;10.18;;;;;;;;;;6202777;23;20027;-88
2023/01/20 03:32:27;;;;;;;13.60;7.63;;;;;;;;;;6188434;23;20008;-88
2023/01/20 03:34:53;;;;;;;9.23;5.47;;;;;;;;;;6163631;23;20032;-88
2023/01/20 03:37:19;;;;;;;11.30;6.80;;;;;;;;;;6188128;23;20432;-88
2023/01/20 03:39:44;;;;;;;11.98;7.13;;;;;;;;;;6163376;23;20004;-88
2023/01/20 03:42:24;;;;;;;13.90;6.55;;;;;;;;;;6187519;23;20447;-88
2023/01/20 03:45:12;;;;;;;7.13;4.00;;;;;;;;;;6189957;23;20005;-89
2023/01/20 03:47:49;;;;;;;6.70;3.17;;;;;;;;;;6191005;23;20083;-87
2023/01/20 03:50:33;;;;;;;6.35;3.60;;;;;;;;;;6176905;23;20420;-87
2023/01/20 03:53:08;;;;;;;5.07;3.42;;;;;;;;;;6187643;23;20008;-87
2023/01/20 03:55:44;;;;;;;4.72;2.75;;;;;;;;;;6214009;23;20009;-85
2023/01/20 03:58:12;;;;;;;5.47;1.85;;;;;;;;;;6188287;23;20072;-87
2023/01/20 04:00:39;;;;;;;5.78;3.08;;;;;;;;;;6188146;23;20098;-86
2023/01/20 04:03:07;;;;;;;6.15;2.63;;;;;;;;;;6163446;23;20000;-89
2023/01/20 04:05:33;;;;;;;9.52;3.13;;;;;;;;;;6188495;23;20000;-88
2023/01/20 04:07:59;;;;;;;10.52;3.30;;;;;;;;;;6192528;23;20008;-87
2023/01/20 04:10:24;;;;;;;9.32;4.05;;;;;;;;;;6175379;23;20050;-88
2023/01/20 04:12:50;;;;;;;7.43;3.95;;;;;;;;;;6188785;23;20044;-88
2023/01/20 04:15:15;;;;;;;8.55;3.85;;;;;;;;;;6189744;23;20001;-87
2023/01/20 04:17:40;;;;;;;6.88;3.78;;;;;;;;;;6190072;23;20000;-88
2023/01/20 04:20:08;;;;;;;18.30;6.28;;;;;;;;;;6217860;23;20004;-88
2023/01/20 04:22:52;;;;;;;8.48;4.13;;;;;;;;;;6165791;23;20005;-86
2023/01/20 04:25:27;;;;;;;10.20;4.18;;;;;;;;;;6191764;23;20000;-86
2023/01/20 04:27:52;;;;;;;9.32;4.22;;;;;;;;;;6176745;23;20480;-86
2023/01/20 04:30:18;;;;;;;6.85;3.67;;;;;;;;;;6165198;23;20000;-87
2023/01/20 04:32:43;;;;;;;7.53;4.05;;;;;;;;;;6187695;23;20107;-87
2023/01/20 04:35:11;;;;;;;11.32;5.53;;;;;;;;;;6188348;23;20031;-87
2023/01/20 04:37:37;;;;;;;13.98;6.50;;;;;;;;;;6165542;23;20001;-85
2023/01/20 04:40:02;;;;;;;22.45;9.32;;;;;;;;;;6215894;23;20066;-87
2023/01/20 04:42:28;;;;;;;14.07;7.10;;;;;;;;;;6188880;23;19996;-86
2023/01/20 04:44:53;;;;;;;18.02;7.35;;;;;;;;;;6217010;23;20523;-86
2023/01/20 04:47:19;;;;;;;11.00;5.57;;;;;;;;;;6226204;23;20420;-88
2023/01/20 04:49:44;;;;;;;14.55;7.40;;;;;;;;;;6189781;23;20000;-88
2023/01/20 04:52:10;;;;;;;10.48;3.72;;;;;;;;;;6189414;23;20001;-89
2023/01/20 04:54:35;;;;;;;10.00;4.20;;;;;;;;;;6215408;23;20045;-87
2023/01/20 04:57:01;;;;;;;10.20;4.47;;;;;;;;;;6164615;23;20011;-88
2023/01/20 04:59:26;;;;;;;11.45;5.00;;;;;;;;;;6215949;23;20008;-87
2023/01/20 05:01:51;;;;;;;15.73;8.32;;;;;;;;;;6188984;23;20070;-87
2023/01/20 05:04:17;;;;;;;9.48;4.72;;;;;;;;;;6189492;23;20013;-87
2023/01/20 05:06:43;;;;;;;5.55;3.83;;;;;;;;;;6173766;23;20034;-86
2023/01/20 05:09:12;;;;;;;10.07;3.45;;;;;;;;;;6189063;23;20005;-84
2023/01/20 05:11:38;;;;;;;13.13;6.45;;;;;;;;;;6189245;23;20016;-85
2023/01/20 05:14:03;;;;;;;7.65;3.92;;;;;;;;;;6215494;23;20360;-84
2023/01/20 05:16:30;;;;;;;9.35;5.22;;;;;;;;;;6215613;23;20001;-85
2023/01/20 05:18:56;;;;;;;7.55;4.97;;;;;;;;;;6188941;23;20525;-85
2023/01/20 05:21:22;;;;;;;8.63;4.45;;;;;;;;;;6215572;23;20020;-80
2023/01/20 05:23:47;;;;;;;8.63;3.70;;;;;;;;;;6188186;23;20009;-80
2023/01/20 05:26:12;;;;;;;11.57;4.45;;;;;;;;;;6188749;23;20082;-80
2023/01/20 05:28:38;;;;;;;7.53;3.90;;;;;;;;;;6163922;23;20054;-79
2023/01/20 05:31:03;;;;;;;7.25;3.38;;;;;;;;;;6215061;23;20079;-79
2023/01/20 05:33:29;;;;;;;6.18;3.47;;;;;;;;;;6213121;23;20043;-79
2023/01/20 05:35:55;;;;;;;4.80;2.80;;;;;;;;;;6211565;23;20008;-79
2023/01/20 05:38:21;;;;;;;4.15;2.78;;;;;;;;;;6162305;23;20036;-79
2023/01/20 05:40:47;;;;;;;4.53;3.10;;;;;;;;;;6163364;23;20020;-79
2023/01/20 05:43:13;;;;;;;9.77;3.55;;;;;;;;;;6138543;23;20474;-78
2023/01/20 05:45:41;;;;;;;7.38;4.90;;;;;;;;;;6211510;23;20092;-79
2023/01/20 05:48:07;;;;;;;8.27;3.42;;;;;;;;;;6213343;23;20072;-77
2023/01/20 05:50:32;;;;;;;4.68;2.88;;;;;;;;;;6186521;23;20284;-77
2023/01/20 05:52:59;;;;;;;8.90;4.07;;;;;;;;;;6186994;23;20052;-77
2023/01/20 05:55:24;;;;;;;4.88;2.65;;;;;;;;;;6217650;23;20060;-78
2023/01/20 05:57:50;;;;;;;9.20;3.17;;;;;;;;;;6186434;23;20339;-78
2023/01/20 06:00:17;;;;;;;7.78;2.70;;;;;;;;;;6210131;23;20012;-78
2023/01/20 06:02:43;;;;;;;4.90;2.40;;;;;;;;;;6209065;23;20591;-77
2023/01/20 06:05:08;;;;;;;5.45;3.22;;;;;;;;;;6183087;23;20020;-78
2023/01/20 06:07:34;;;;;;;8.57;2.65;;;;;;;;;;6208970;23;20062;-78
2023/01/20 06:10:01;;;;;;;6.40;3.35;;;;;;;;;;6183519;23;20084;-76
2023/01/20 06:12:26;;;;;;;8.32;2.63;;;;;;;;;;6208886;23;20666;-76
2023/01/20 06:14:52;;;;;;;4.30;2.50;;;;;;;;;;6182489;23;20004;-76
2023/01/20 06:17:17;;;;;;;6.97;2.50;;;;;;;;;;6208867;23;20008;-77
2023/01/20 06:19:43;;;;;;;5.68;2.70;;;;;;;;;;6187287;23;20711;-83
2023/01/20 06:22:11;;;;;;;5.70;2.47;;;;;;;;;;6214898;23;20052;-87
2023/01/20 06:24:37;;;;;;;3.10;2.03;;;;;;;;;;6172981;23;20015;-88
2023/01/20 06:27:06;;;;;;;3.30;2.25;;;;;;;;;;6199188;23;20450;-88
2023/01/20 06:29:31;;;;;;;8.15;3.00;;;;;;;;;;6190950;23;20032;-87
2023/01/20 06:31:57;;;;;;;11.95;4.90;;;;;;;;;;6191169;23;20031;-86
2023/01/20 06:34:22;;;;;;;9.82;5.13;;;;;;;;;;6220439;23;20008;-85
2023/01/20 06:36:48;;;;;;;10.30;5.18;;;;;;;;;;6215863;23;20001;-83
2023/01/20 06:39:13;;;;;;;9.35;5.75;;;;;;;;;;6218997;23;20083;-83
2023/01/20 06:41:39;;;;;;;10.65;3.70;;;;;;;;;;6193621;23;20010;-84
2023/01/20 06:44:05;;;;;;;10.15;3.00;;;;;;;;;;6169926;23;20012;-83
2023/01/20 06:46:33;;;;;;;8.18;3.00;;;;;;;;;;6190561;23;20004;-84
2023/01/20 06:49:01;;;;;;;6.88;3.38;;;;;;;;;;6191941;23;20007;-81
2023/01/20 06:51:30;;;;;;;6.60;3.65;;;;;;;;;;6212266;23;20071;-82
2023/01/20 06:53:56;;;;;;;6.63;4.07;;;;;;;;;;6184614;23;20009;-82
2023/01/20 06:56:25;;;;;;;14.45;4.32;;;;;;;;;;6185010;23;20001;-82
2023/01/20 06:58:51;;;;;;;19.15;6.93;;;;;;;;;;6184426;23;20004;-84
2023/01/20 07:01:25;;;;;;;17.13;7.40;;;;;;;;;;6161742;23;20042;-83
2023/01/20 07:04:07;;;;;;;14.20;7.03;;;;;;;;;;6161521;23;20027;-83
2023/01/20 07:06:34;;;;;;;13.45;7.10;;;;;;;;;;6212648;23;20428;-83
2023/01/20 07:09:23;;;;;;;10.48;5.32;;;;;;;;;;6130103;23;20049;-83
2023/01/20 07:11:48;;;;;;;8.88;4.57;;;;;;;;;;6186877;23;20026;-83
2023/01/20 07:14:14;;;;;;;9.35;3.97;;;;;;;;;;6187870;23;20007;-82
2023/01/20 07:16:39;;;;;;;7.32;4.20;;;;;;;;;;6214660;23;20000;-83
2023/01/20 07:19:05;;;;;;;9.20;4.53;;;;;;;;;;6213988;23;20001;-79
2023/01/20 07:21:31;;;;;;;14.07;5.10;;;;;;;;;;6164984;23;20087;-82
2023/01/20 07:24:01;;;;;;;9.15;5.30;;;;;;;;;;6195507;23;20012;-83
2023/01/20 07:26:27;;;;;;;10.13;4.78;;;;;;;;;;6192317;23;20032;-81
2023/01/20 07:28:53;;;;;;;6.82;3.65;;;;;;;;;;6217717;23;20001;-83
2023/01/20 07:31:20;;;;;;;12.68;4.55;;;;;;;;;;6192060;23;20062;-84
2023/01/20 07:33:45;;;;;;;10.20;3.95;;;;;;;;;;6167985;23;20146;-84
2023/01/20 07:36:11;;;;;;;6.53;3.70;;;;;;;;;;6166336;23;20009;-82
2023/01/20 07:38:37;;;;;;;5.22;3.22;;;;;;;;;;6215323;23;20062;-84
2023/01/20 07:41:05;;;;;;;9.02;4.60;;;;;;;;;;6217895;23;20005;-82
2023/01/20 07:43:30;;;;;;;14.90;4.55;;;;;;;;;;6219376;23;20390;-83
2023/01/20 07:46:00;;;;;;;11.00;6.05;;;;;;;;;;6191208;23;20063;-82
2023/01/20 07:48:28;;;;;;;14.25;6.88;;;;;;;;;;6188267;23;20000;-83
2023/01/20 07:51:01;;;;;;;13.95;7.78;;;;;;;;;;6216605;23;20005;-83
2023/01/20 07:53:46;;;;;;;11.43;7.05;;;;;;;;;;6191205;23;20013;-85
2023/01/20 07:56:14;;;;;;;13.98;7.25;;;;;;;;;;6158591;23;20004;-82
2023/01/20 07:58:40;;;;;;;17.55;8.73;;;;;;;;;;6183329;23;20087;-82
2023/01/20 08:01:10;;;;;;;18.08;10.40;;;;;;;;;;6191386;23;20107;-81
2023/01/20 08:03:36;;;;;;;19.80;11.25;;;;;;;;;;6188428;23;20009;-82
2023/01/20 08:06:04;;;;;;;21.10;11.88;;;;;;;;;;6194365;23;20011;-87
2023/01/20 08:08:31;;;;;;;21.23;11.57;;;;;;;;;;6230252;23;20011;-86
2023/01/20 08:11:20;;;;;;;23.90;12.63;;;;;;;;;;6224155;23;20009;-85
2023/01/20 08:13:48;;;;;;;27.85;15.15;;;;;;;;;;6172024;23;20056;-89
2023/01/20 08:16:15;;;;;;;36.33;21.27;;;;;;;;;;6192134;23;20005;-82
2023/01/20 08:18:40;;;;;;;31.85;19.90;;;;;;;;;;6217352;23;20004;-89
2023/01/20 08:21:21;;;;;;;31.15;18.95;;;;;;;;;;6147053;23;20008;-89
2023/01/20 08:23:47;;;;;;;33.75;18.90;;;;;;;;;;6196754;23;20063;-90
2023/01/20 08:26:13;;;;;;;25.13;15.00;;;;;;;;;;6178373;23;20075;-86
2023/01/20 08:28:38;;;;;;;27.05;13.77;;;;;;;;;;6146554;23;20035;-86
2023/01/20 08:31:11;;;;;;;30.00;16.42;;;;;;;;;;6168087;23;20064;-85
2023/01/20 08:33:37;;;;;;;40.03;22.50;;;;;;;;;;6169706;23;20011;-85
2023/01/20 08:36:17;;;;;;;56.15;29.45;;;;;;;;;;6192894;23;20075;-88
2023/01/20 08:38:43;;;;;;;60.20;31.15;;;;;;;;;;6189384;23;20000;-86
2023/01/20 08:41:13;;;;;;;59.25;31.60;;;;;;;;;;6166533;23;20049;-86
2023/01/20 08:43:46;;;;;;;;;;;;;;;;;;6221569;23;20300;-85
2023/01/20 08:46:12;;;;;;;53.30;25.85;;;;;;;;;;6196853;23;19914;-83
2023/01/20 08:48:40;;;;;;;49.92;25.45;;;;;;;;;;6190575;23;20013;-87
2023/01/20 08:51:14;;;;;;;43.10;23.35;;;;;;;;;;6195980;23;20000;-84
2023/01/20 08:53:41;;;;;;;42.05;21.92;;;;;;;;;;6219036;23;20486;-86
2023/01/20 08:56:07;;;;;;;37.85;21.00;;;;;;;;;;6189400;23;20004;-87
2023/01/20 08:58:33;;;;;;;38.10;21.23;;;;;;;;;;6186896;23;20032;-89
2023/01/20 09:01:06;;;;;;;37.40;22.48;;;;;;;;;;6191628;23;20011;-89
2023/01/20 09:03:31;;;;;;;37.55;23.20;;;;;;;;;;6146933;23;20438;-88
2023/01/20 09:06:07;;;;;;;36.72;21.70;;;;;;;;;;6175893;23;20028;-89
2023/01/20 09:08:34;;;;;;;13.88;8.27;;;;;;;;;;6167485;23;20008;-87
2023/01/20 09:11:05;;;;;;;11.00;6.50;;;;;;;;;;6144496;23;20419;-87
2023/01/20 09:13:53;;;;;;;10.82;5.68;;;;;;;;;;6140166;23;20069;-87
2023/01/20 09:29:31;;;;;;;11.05;5.05;;;;;;;;;;6186546;23;20048;-86
2023/01/20 09:32:11;;;;;;;11.77;6.25;;;;;;;;;;6186885;23;20001;-87
2023/01/20 09:34:43;;;;;;;10.68;4.28;;;;;;;;;;6141735;23;20012;-87
2023/01/20 09:46:09;;;;;;;9.65;4.43;;;;;;;;;;6178841;23;20096;-82
2023/01/20 09:55:19;;;;;;;10.30;4.90;;;;;;;;;;6177217;23;20083;-86
2023/01/20 09:57:47;;;;;;;9.52;4.60;;;;;;;;;;6180017;23;20032;-83
2023/01/20 10:00:38;;;;;;;13.77;5.20;;;;;;;;;;6162352;23;20340;-87
2023/01/20 10:03:35;;;;;;;12.30;4.72;;;;;;;;;;6184839;23;20005;-88
2023/01/20 10:06:04;;;;;;;13.15;5.03;;;;;;;;;;6201486;23;20031;-86
2023/01/20 10:09:03;;;;;;;12.70;6.13;;;;;;;;;;6178374;23;19985;-84
2023/01/20 10:11:48;;;;;;;16.48;8.18;;;;;;;;;;6204334;23;20013;-84
2023/01/20 10:14:49;;;;;;;17.77;9.60;;;;;;;;;;6204380;23;20016;-84
2023/01/20 10:17:46;;;;;;;37.78;18.50;;;;;;;;;;6181202;23;20075;-84
2023/01/20 10:20:20;;;;;;;46.97;24.35;;;;;;;;;;6187393;23;20080;-84
2023/01/20 10:23:03;;;;;;;70.03;31.58;;;;;;;;;;6164611;23;20005;-85
2023/01/20 10:26:15;;;;;;;32.53;13.77;;;;;;;;;;6195275;23;20012;-84
2023/01/20 10:28:42;;;;;;;36.33;19.20;;;;;;;;;;6101218;23;20533;-84
2023/01/20 10:31:08;;;;;;;26.45;14.38;;;;;;;;;;6075532;23;20006;-84
2023/01/20 10:33:41;;;;;;;30.30;16.67;;;;;;;;;;6130029;23;20013;-83
2023/01/20 10:36:18;;;;;;;28.10;15.55;;;;;;;;;;6149412;23;20069;-83
2023/01/20 10:39:02;;;;;;;21.08;12.13;;;;;;;;;;6197554;23;20003;-85
2023/01/20 10:41:30;;;;;;;27.48;15.80;;;;;;;;;;6185221;23;20412;-86
2023/01/20 10:43:59;;;;;;;27.88;15.93;;;;;;;;;;6185954;23;20048;-87
2023/01/20 10:46:48;;;;;;;61.42;36.20;;;;;;;;;;6184366;23;20032;-84
2023/01/20 10:49:29;;;;;;;49.97;33.78;;;;;;;;;;6180524;23;19998;-83
2023/01/20 10:52:16;;;;;;;37.20;22.30;;;;;;;;;;6180552;23;20005;-85
2023/01/20 10:55:17;;;;;;;46.30;23.00;;;;;;;;;;6180686;23;20009;-80
2023/01/20 10:57:43;;;;;;;56.88;26.92;;;;;;;;;;6182697;23;20005;-84
2023/01/20 11:00:35;;;;;;;39.30;20.38;;;;;;;;;;6161113;23;20037;-83
2023/01/20 11:03:05;;;;;;;26.42;15.23;;;;;;;;;;6177175;23;20119;-90
2023/01/20 11:05:36;;;;;;;32.20;18.67;;;;;;;;;;6159989;23;20012;-88
2023/01/20 11:08:01;;;;;;;;;;;;;;;;;;6159594;23;20001;-81
2023/01/20 11:10:28;;;;;;;27.30;12.00;;;;;;;;;;6191679;23;19915;-86
2023/01/20 11:12:58;;;;;;;18.38;10.20;;;;;;;;;;6196219;23;20005;-86
2023/01/20 11:15:28;;;;;;;20.70;10.60;;;;;;;;;;6163801;23;20009;-87
2023/01/20 11:18:12;;;;;;;23.00;11.63;;;;;;;;;;6185848;23;20474;-87
2023/01/20 11:20:41;;;;;;;28.13;14.05;;;;;;;;;;6185169;23;20001;-87
2023/01/20 11:23:37;;;;;;;25.20;12.18;;;;;;;;;;6188437;23;20040;-88
2023/01/20 11:26:09;;;;;;;24.73;14.23;;;;;;;;;;6152406;23;20056;-88
2023/01/20 11:28:55;;;;;;;27.52;13.73;;;;;;;;;;6192763;23;20013;-87
2023/01/20 11:31:40;;;;;;;16.98;10.23;;;;;;;;;;6188580;23;20005;-88
2023/01/20 11:34:26;;;;;;;12.20;7.40;;;;;;;;;;6186825;23;20095;-84
2023/01/20 11:37:04;;;;;;;17.45;8.43;;;;;;;;;;6160168;23;20008;-84
2023/01/20 11:39:32;;;;;;;17.45;9.30;;;;;;;;;;6190698;23;20009;-86
2023/01/20 11:42:20;;;;;;;18.65;9.48;;;;;;;;;;6187011;23;19997;-89
2023/01/20 11:44:46;;;;;;;38.72;15.70;;;;;;;;;;6188093;23;20008;-86
2023/01/20 11:47:23;;;;;;;35.47;17.15;;;;;;;;;;6203825;23;19993;-86
2023/01/20 11:50:07;;;;;;;22.45;10.13;;;;;;;;;;6185681;23;20003;-85
2023/01/20 11:52:36;;;;;;;16.58;7.45;;;;;;;;;;6183804;23;20095;-88
2023/01/20 11:55:07;;;;;;;9.93;5.80;;;;;;;;;;6185424;23;20001;-85
2023/01/20 11:57:33;;;;;;;13.45;6.47;;;;;;;;;;6184121;23;20009;-86
2023/01/20 11:59:58;;;;;;;30.00;9.52;;;;;;;;;;6183058;23;20035;-84
2023/01/20 12:02:24;;;;;;;11.32;5.75;;;;;;;;;;6183929;23;20447;-85
2023/01/20 12:05:03;;;;;;;14.73;6.53;;;;;;;;;;6185067;23;20009;-86
2023/01/20 12:07:31;;;;;;;17.57;7.97;;;;;;;;;;6191241;23;20009;-84
2023/01/20 12:10:04;;;;;;;10.48;4.55;;;;;;;;;;6186790;23;20011;-86
2023/01/20 12:13:02;;;;;;;9.48;4.38;;;;;;;;;;6183637;23;20503;-85
2023/01/20 12:15:32;;;;;;;12.13;6.07;;;;;;;;;;6163147;23;20006;-86
2023/01/20 12:18:29;;;;;;;13.40;5.93;;;;;;;;;;6161910;23;20012;-86
2023/01/20 12:21:06;;;;;;;9.77;4.95;;;;;;;;;;6184988;23;20738;-85
2023/01/20 12:23:45;;;;;;;7.93;3.50;;;;;;;;;;6184810;23;20401;-87
2023/01/20 12:26:17;;;;;;;10.13;4.95;;;;;;;;;;6185437;23;20090;-82
2023/01/20 12:28:52;;;;;;;10.07;4.53;;;;;;;;;;6164499;23;20016;-80
2023/01/20 12:31:22;;;;;;;14.00;6.57;;;;;;;;;;6192726;23;20005;-84
2023/01/20 12:34:03;;;;;;;19.25;7.78;;;;;;;;;;6158901;23;20040;-83
2023/01/20 12:36:48;;;;;;;;;;;;;;;;;;6186244;23;20001;-82
2023/01/20 12:39:30;;;;;;;19.20;8.23;;;;;;;;;;6182616;23;19965;-83
2023/01/20 12:42:11;;;;;;;10.27;5.13;;;;;;;;;;6181978;23;20016;-82
2023/01/20 12:44:55;;;;;;;;;;;;;;;;;;6183553;23;20028;-85
2023/01/20 12:47:57;;;;;;;27.23;7.40;;;;;;;;;;6192410;23;19909;-84
2023/01/20 12:50:31;;;;;;;17.30;6.70;;;;;;;;;;6185578;23;20028;-84
2023/01/20 12:53:14;;;;;;;17.38;6.82;;;;;;;;;;6177826;23;20075;-84
2023/01/20 12:56:05;;;;;;;16.33;4.72;;;;;;;;;;6180859;23;20001;-84
2023/01/20 12:58:43;;;;;;;10.18;5.10;;;;;;;;;;6181134;23;20033;-86
2023/01/20 13:01:15;;;;;;;8.57;4.32;;;;;;;;;;6181291;23;20007;-87
2023/01/20 13:04:05;;;;;;;9.60;4.88;;;;;;;;;;6184366;23;20415;-85
2023/01/20 13:06:39;;;;;;;19.63;7.90;;;;;;;;;;6191427;23;20252;-88
2023/01/20 13:09:27;;;;;;;12.48;4.60;;;;;;;;;;6167515;23;20001;-86
2023/01/20 13:12:05;;;;;;;17.55;5.68;;;;;;;;;;6164161;23;20009;-85
2023/01/20 13:15:17;;;;;;;20.80;6.45;;;;;;;;;;6186617;23;20016;-83
2023/01/20 13:18:00;;;;;;;16.58;6.78;;;;;;;;;;6160670;23;20112;-87
2023/01/20 13:20:26;;;;;;;14.90;6.03;;;;;;;;;;6184702;23;20001;-85
2023/01/20 13:22:51;;;;;;;15.40;6.72;;;;;;;;;;6159742;23;20012;-83
2023/01/20 13:25:18;;;;;;;11.65;5.13;;;;;;;;;;6184475;23;20005;-83
2023/01/20 13:27:44;;;;;;;9.88;4.60;;;;;;;;;;6162341;23;20321;-82
2023/01/20 13:30:41;;;;;;;9.75;5.20;;;;;;;;;;6185389;23;20009;-85
2023/01/20 13:33:15;;;;;;;13.07;5.53;;;;;;;;;;6183268;23;20092;-85
2023/01/20 13:35:47;;;;;;;13.25;6.05;;;;;;;;;;6161944;23;20001;-83
2023/01/20 13:38:21;;;;;;;12.93;6.22;;;;;;;;;;6158768;23;20100;-85
2023/01/20 13:40:49;;;;;;;18.65;7.68;;;;;;;;;;6184422;23;20032;-80
2023/01/20 13:43:27;;;;;;;18.08;8.48;;;;;;;;;;6186831;23;20420;-81
2023/01/20 13:46:06;;;;;;;17.70;8.60;;;;;;;;;;6186654;23;20032;-81
2023/01/20 13:48:33;;;;;;;16.60;8.23;;;;;;;;;;6184977;23;19997;-84
2023/01/20 13:51:20;;;;;;;19.83;9.73;;;;;;;;;;6158370;23;20007;-86
2023/01/20 13:53:46;;;;;;;19.00;8.93;;;;;;;;;;6183328;23;20420;-85
2023/01/20 13:56:31;;;;;;;19.55;8.93;;;;;;;;;;6183623;23;20005;-84
2023/01/20 13:58:57;;;;;;;15.77;8.60;;;;;;;;;;6183325;23;19993;-85
2023/01/20 14:01:23;;;;;;;20.20;9.63;;;;;;;;;;6162149;23;20008;-87
2023/01/20 14:04:06;;;;;;;21.95;10.68;;;;;;;;;;6160926;23;20028;-86
2023/01/20 14:06:32;;;;;;;21.15;9.02;;;;;;;;;;6163698;23;20009;-83
2023/01/20 14:09:00;;;;;;;19.33;9.50;;;;;;;;;;6185939;23;20054;-88
2023/01/20 14:11:26;;;;;;;14.88;9.10;;;;;;;;;;6184957;23;20028;-85
2023/01/20 14:13:55;;;;;;;11.55;7.18;;;;;;;;;;6184764;23;20405;-87
2023/01/20 14:16:25;;;;;;;11.13;7.10;;;;;;;;;;6184413;23;20376;-87
2023/01/20 14:18:55;;;;;;;8.20;5.05;;;;;;;;;;6159510;23;20437;-85
2023/01/20 14:21:25;;;;;;;7.63;5.03;;;;;;;;;;6160564;23;20004;-86
2023/01/20 14:23:51;;;;;;;9.82;5.05;;;;;;;;;;6184232;23;20009;-86
2023/01/20 14:26:22;;;;;;;9.43;6.15;;;;;;;;;;6188308;23;20001;-83
2023/01/20 14:28:50;;;;;;;6.95;4.43;;;;;;;;;;6186228;23;20082;-86
2023/01/20 14:31:33;;;;;;;10.85;4.82;;;;;;;;;;6183743;23;20040;-84
2023/01/20 14:34:27;;;;;;;14.73;6.07;;;;;;;;;;6182933;23;20031;-83
2023/01/20 14:36:52;;;;;;;15.95;7.22;;;;;;;;;;6160674;23;20001;-83
2023/01/20 14:39:25;;;;;;;15.07;8.23;;;;;;;;;;6183499;23;20448;-85
2023/01/20 14:41:58;;;;;;;11.82;6.03;;;;;;;;;;6170525;23;20008;-84
2023/01/20 14:44:27;;;;;;;12.63;6.93;;;;;;;;;;6189553;23;20091;-86
2023/01/20 14:46:55;;;;;;;12.38;6.28;;;;;;;;;;6195177;23;20077;-85
2023/01/20 14:49:21;;;;;;;9.65;5.30;;;;;;;;;;6196228;23;20005;-84
2023/01/20 14:51:47;;;;;;;11.48;6.28;;;;;;;;;;6159759;23;20009;-88
2023/01/20 14:54:31;;;;;;;11.25;5.88;;;;;;;;;;6158919;23;20012;-87
2023/01/20 14:56:58;;;;;;;9.63;5.20;;;;;;;;;;6182396;23;20111;-84
2023/01/20 14:59:23;;;;;;;10.57;6.10;;;;;;;;;;6184359;23;20009;-87
2023/01/20 15:01:53;;;;;;;15.63;6.22;;;;;;;;;;6157970;23;20007;-83
2023/01/20 15:04:18;;;;;;;25.77;9.88;;;;;;;;;;6180768;23;20325;-81
2023/01/20 15:06:53;;;;;;;10.15;5.15;;;;;;;;;;6185166;23;20004;-84
2023/01/20 15:09:24;;;;;;;11.77;5.28;;;;;;;;;;6182246;23;20012;-85
2023/01/20 15:11:50;;;;;;;11.10;5.40;;;;;;;;;;6182377;23;20062;-85
2023/01/20 15:14:16;;;;;;;13.35;6.05;;;;;;;;;;6183163;23;20421;-84
2023/01/20 15:16:46;;;;;;;17.40;7.80;;;;;;;;;;6182413;23;20001;-84
2023/01/20 15:19:18;;;;;;;11.32;6.40;;;;;;;;;;6182745;23;20005;-86
2023/01/20 15:21:57;;;;;;;11.45;5.88;;;;;;;;;;6182759;23;20060;-86
2023/01/20 15:24:23;;;;;;;96.50;26.88;;;;;;;;;;6184048;23;20056;-84
2023/01/20 15:26:50;;;;;;;37.50;14.20;;;;;;;;;;6189470;23;20005;-86